Atkins, IA

7:04 PM CDT on September 29, 2016 (GMT -0500)
Ridgeview Estates | | Change Station
Active Advisory: Flood Warning

Elev 860 ft 41.99 °N, 91.85 °W | Updated 1 second ago

Clear
Clear
67.3 °F
Feels Like 67.3 °F
N
3.7
Wind Variable Wind from NE

Today
High -- | Low -- °F
--% Chance of Precip.
Yesterday
High -- | Low -- °F
Precip. -- in
Pressure 30.27 in
Visibility 10.0 miles
Clouds Clear
Dew Point 49 °F
Humidity 51%
Rainfall 0.00 in
Snow Depth Not available.
7:02 AM 6:51 PM
Waning Crescent, 1% visible
METAR KCID 292352Z 03009KT 10SM CLR 20/10 A3027 RMK AO2 SLP249 T02000100 10233 20200 53004
Pressure 30.27 in
Visibility 10.0 miles
Clouds Clear
Dew Point 49 °F
Humidity 51%
Rainfall 0.00 in
Snow Depth Not available.
7:02 AM 6:51 PM
Waning Crescent, 1% visible
METAR KCID 292352Z 03009KT 10SM CLR 20/10 A3027 RMK AO2 SLP249 T02000100 10233 20200 53004

10-Day Weather Forecast

Almanac

Astronomy

Sep. 29, 2016 Rise Set
Actual Time
Civil Twilight
Nautical Twilight
Astronomical Twilight
Moon
Length of Visible Light
Length of Day
Tomorrow will be .
, % of the Moon is Illuminated

Today's Extremes

State Highs State Lows

Community

WunderPhotos

Upload Photos

1,942,602 photos uploaded!

WunderBlog® & News

Nearby

Air Quality

  Air Quality AQ Index Pollutant
Not available.

Snow Depth

Station Depth Elevation

Earthquake Activity

City Distance Mag. Time & Date
Minimum magnitude displayed is 2.5.

Coastal Water Temperatures

Place Temperature

Stations

Nearby Weather Stations

Station Location Temp. Windchill Dew Point Humidity Wind Precip. Elev Updated Type
                   

Watches & Warnings

Flood Warning
Issued: 3:43 PM CDT Sep. 29, 2016 – National Weather Service

... Flood Warning remains in effect until Friday morning...

The Flood Warning continues for
the Cedar River at Vinton.
* Until Friday morning.
* At 3:15 PM Thursday the stage was 16.0 feet... and falling.
* Flood stage is 15.0 feet.
* Minor flooding is occurring.
* Forecast... fall below flood stage Friday morning.
* Impact... at 15.0 feet... water affects much of 22nd Avenue Road.


Lat... Lon 4230 9198 4232 9210 4231 9222 4200 9183
      4212 9173